Home > Products > Valid Products > MTR

000
SAUS43 KMQT 170703 COR
MTRP53
METAR KP53 170656Z AUTO 19005KT 07/06 A2997 RMK AO1 SLP150 T00720056





000
SAUS43 KMQT 170658
MTRP59
METAR KP59 170651Z AUTO 19003KT 08/04 A2995 RMK AO1 SLP143 T00780044





000
SAUS43 KMQT 170603 COR
MTRP53
METAR KP53 170556Z AUTO 18005KT 08/06 A2999 RMK AO1 SLP156 T00830061
10150 20083 58004





000
SAUS43 KMQT 170557
MTRP59
METAR KP59 170551Z AUTO 00000KT 08/05 A3000 RMK AO1 SLP158 P0001
60001 T00830050 10111 20072 57006





000
SAUS43 KMQT 170503 COR
MTRP53
METAR KP53 170456Z AUTO 19004KT 09/07 A3000 RMK AO1 SLP160 T00940067
402170044





000
SAUS43 KMQT 170458
MTRP59
METAR KP59 170451Z AUTO 14006KT 08/04 A3001 RMK AO1 SLP161 T00780044
401780072





000
SAUS43 KMQT 170403 COR
MTRP53
METAR KP53 170356Z AUTO 00000KT 11/07 A3000 RMK AO1 SLP160 T01060072





000
SAUS43 KMQT 170358
MTRP59
METAR KP59 170351Z AUTO 12005KT 08/05 A3001 RMK AO1 SLP163 T00780050





000
SAUS43 KMQT 170358
MTRP59
METAR KP59 170351Z AUTO 12005KT 08/05 A3001 RMK AO1 SLP163 T00780050





000
SAUS43 KMQT 170304 COR
MTRP53
METAR KP53 170256Z AUTO 03003KT 12/07 A3000 RMK AO1 SLP160 T01220072
51002





000
SAUS43 KMQT 170258
MTRP59
METAR KP59 170251Z AUTO 12006KT 08/06 A3002 RMK AO1 SLP166 T00830061
53014





000
SAUS43 KMQT 170204 COR
MTRP53
METAR KP53 170156Z AUTO 05003KT 13/07 A3000 RMK AO1 SLP161 T01280072





000
SAUS43 KMQT 170159
MTRP59
METAR KP59 170151Z AUTO VRB04KT 09/07 A3000 RMK AO1 SLP161 T00940072





000
SAUS43 KMQT 170104 COR
MTRP53
METAR KP53 170056Z AUTO 02013KT 14/08 A3000 RMK AO1 SLP164 T01390083





000
SAUS43 KMQT 170058
MTRP59
METAR KP59 170051Z AUTO 00000KT 09/07 A2999 RMK AO1 SLP157 T00890067





000
SAUS43 KMQT 170003 COR
MTRP53
METAR KP53 162356Z AUTO 05008KT 15/08 A2999 RMK AO1 WSHFT 2250
SLP159 T01500083 10217 20150 53010





000
SAUS43 KMQT 162358
MTRP59
METAR KP59 162351Z AUTO 02005KT 11/07 A2998 RMK AO1 SLP152 T01110072
10167 20111 50004





000
SAUS43 KMQT 162311
MTRP53
SPECI KP53 162310Z AUTO 01008KT 17/08 A2999 RMK AO1 WSHFT 2250
T01670078





000
SAUS43 KMQT 162303 COR
MTRP53
METAR KP53 162256Z AUTO 33014KT 17/09 A2998 RMK AO1 PRESRR SLP155
T01720089





000
SAUS43 KMQT 162257
MTRP59
METAR KP59 162251Z AUTO 35007KT 12/08 A2998 RMK AO1 SLP152 T01220078





000
SAUS43 KMQT 162204 COR
MTRP53
METAR KP53 162156Z AUTO 21004KT 19/07 A2995 RMK AO1 SLP145 T01890072





000
SAUS43 KMQT 162159
MTRP59
METAR KP59 162151Z AUTO 35013KT 12/08 A2998 RMK AO1 SLP151 T01220078





000
SAUS43 KMQT 162104 COR
MTRP53
METAR KP53 162056Z AUTO 23007KT 210V270 21/05 A2996 RMK AO1 SLP148
T02060050 56011





000
SAUS43 KMQT 162059
MTRP59
METAR KP59 162051Z AUTO 34011G20KT 14/06 A2996 RMK AO1 SLP147
T01440061 52009





000
SAUS43 KMQT 162003 COR
MTRP53
METAR KP53 161956Z AUTO VRB05KT 21/06 A2997 RMK AO1 SLP149 T02110056





000
SAUS43 KMQT 161958
MTRP59
METAR KP59 161951Z AUTO 33011G19KT 14/05 A2995 RMK AO1 SLP143
T01390050





000
SAUS43 KMQT 161903 COR
MTRP53
METAR KP53 161856Z AUTO 28007KT 230V300 20/05 A2998 RMK AO1 SLP155
T02000050





000
SAUS43 KMQT 161857
MTRP59
METAR KP59 161851Z AUTO 32007G15KT 14/06 A2995 RMK AO1 SLP141
T01440056





000
SAUS43 KMQT 161804 COR
MTRP53
METAR KP53 161756Z AUTO 24006G17KT 19/05 A2999 RMK AO1 SLP159
T01940050 10194 20044 56019





000
SAUS43 KMQT 161758
MTRP59
METAR KP59 161751Z AUTO VRB04G15KT 17/05 A2994 RMK AO1 SLP136
T01670050 10178 20117 56011





000
SAUS43 KMQT 161704 COR
MTRP53
METAR KP53 161656Z AUTO 21009G15KT 18/04 A3001 RMK AO1 SLP163
T01780044





000
SAUS43 KMQT 161700 COR
MTRP59
METAR KP59 161651Z AUTO VRB06KT 17/06 A2995 RMK AO1 SLP139 T01670056





000
SAUS43 KMQT 161604 COR
MTRP53
METAR KP53 161556Z AUTO 21007KT 17/04 A3003 RMK AO1 SLP170 T01720044





000
SAUS43 KMQT 161558
MTRP59
METAR KP59 161551Z AUTO 33009G19KT 15/05 A2996 RMK AO1 SLP144
T01500050





000
SAUS43 KMQT 161503 COR
MTRP53
METAR KP53 161456Z AUTO 20007KT 15/04 A3005 RMK AO1 SLP178 T01500039
58013





000
SAUS43 KMQT 161459
MTRP59
METAR KP59 161451Z AUTO 33010G18KT 290V010 15/05 A2997 RMK AO1
SLP149 T01500050 56014





000
SAUS43 KMQT 161403 COR
MTRP53
METAR KP53 161356Z AUTO 21006KT 12/04 A3007 RMK AO1 SLP184 T01170039





000
SAUS43 KMQT 161359
MTRP59
METAR KP59 161351Z AUTO 13/03 A2998 RMK AO1 SLP153 T01330033





000
SAUS43 KMQT 161305 COR
MTRP53
METAR KP53 161256Z AUTO VRB03KT 07/03 A3008 RMK AO1 SLP188 T00720033





000
SAUS43 KMQT 161258
MTRP59
METAR KP59 161251Z AUTO 29008G16KT 250V330 12/03 A3000 RMK AO1
SLP159 T01220033





000
SAUS43 KMQT 161204 COR
MTRP53
METAR KP53 161156Z AUTO 15006KT 04/02 A3009 RMK AO1 SLP194 T00440017
10056 20044 53001





000
SAUS43 KMQT 161158
MTRP59
METAR KP59 161151Z AUTO 29008G18KT 250V320 12/03 A3001 RMK AO1
SLP164 T01170033 10117 20106 58011





000
SAUS43 KMQT 161104 COR
MTRP53
METAR KP53 161056Z AUTO 17007KT 05/02 A3009 RMK AO1 SLP192 T00500017





000
SAUS43 KMQT 161058
MTRP59
METAR KP59 161051Z AUTO 29008KT 12/03 A3003 RMK AO1 SLP168 T01170033





000
SAUS43 KMQT 161003 COR
MTRP53
METAR KP53 160956Z AUTO 18009KT 05/02 A3009 RMK AO1 SLP191 T00500022





000
SAUS43 KMQT 160958
MTRP59
METAR KP59 160951Z AUTO 31007G14KT 250V350 12/03 A3004 RMK AO1
SLP172 T01170028





000
SAUS43 KMQT 160903 COR
MTRP53
METAR KP53 160856Z AUTO 18009KT 05/03 A3009 RMK AO1 SLP192 T00500028
58004





000
SAUS43 KMQT 160858
MTRP59
METAR KP59 160851Z AUTO 30007KT 270V350 11/03 A3005 RMK AO1 SLP175
T01110028 58003





000
SAUS43 KMQT 160803 COR
MTRP53
METAR KP53 160756Z AUTO 19007KT 05/03 A3010 RMK AO1 SLP195 T00500028





000
SAUS43 KMQT 160758
MTRP59
METAR KP59 160751Z AUTO 29008G15KT 11/03 A3005 RMK AO1 SLP175
T01110028





000
SAUS43 KMQT 160704 COR
MTRP53
METAR KP53 160656Z AUTO 20005KT 06/03 A3010 RMK AO1 SLP196 T00560028





000
SAUS43 KMQT 160659
MTRP59
METAR KP59 160651Z AUTO 29007KT 240V310 11/03 A3006 RMK AO1 SLP178
T01110028





000
SAUS43 KMQT 160603 COR
MTRP53
METAR KP53 160556Z AUTO 18004KT 06/03 A3010 RMK AO1 SLP196 T00560033
10128 20056 58002





000
SAUS43 KMQT 160558
MTRP59
METAR KP59 160551Z AUTO 28007KT 11/03 A3006 RMK AO1 SLP179 T01110033
10111 20094 56006





000
SAUS43 KMQT 160504 COR
MTRP53
METAR KP53 160456Z AUTO 18004KT 06/04 A3011 RMK AO1 SLP199 T00610039
401560050





000
SAUS43 KMQT 160458
MTRP59
METAR KP59 160451Z AUTO 29006KT 11/03 A3006 RMK AO1 SLP180 T01060033
401330072





000
SAUS43 KMQT 160404 COR
MTRP53
METAR KP53 160356Z AUTO 18005KT 07/04 A3011 RMK AO1 SLP198 T00670044





000
SAUS43 KMQT 160358
MTRP59
METAR KP59 160351Z AUTO VRB04KT 11/03 A3007 RMK AO1 SLP183 T01060028





000
SAUS43 KMQT 160303 COR
MTRP53
METAR KP53 160256Z AUTO 19004KT 08/06 A3011 RMK AO1 SLP199 T00780056
51003





000
SAUS43 KMQT 160259
MTRP59
METAR KP59 160251Z AUTO 30008KT 10/02 A3007 RMK AO1 SLP185 T01000022
58001





000
SAUS43 KMQT 160203 COR
MTRP53
METAR KP53 160156Z AUTO 34005KT 12/08 A3011 RMK AO1 SLP197 T01220078





000
SAUS43 KMQT 160159
MTRP59
METAR KP59 160151Z AUTO 29004KT 09/04 A3008 RMK AO1 SLP188 T00940039





000
SAUS43 KMQT 160104 COR
MTRP53
METAR KP53 160056Z AUTO 33008KT 12/08 A3011 RMK AO1 SLP199 T01220078





000
SAUS43 KMQT 160058
MTRP59
METAR KP59 160051Z AUTO VRB03KT 09/05 A3009 RMK AO1 SLP190 T00940050





000
SAUS43 KMQT 160004 COR
MTRP53
METAR KP53 152356Z AUTO 35005KT 13/08 A3010 RMK AO1 SLP196 T01280083
10156 20128 51005





000
SAUS43 KMQT 152358
MTRP59
METAR KP59 152351Z AUTO VRB05KT 11/04 A3008 RMK AO1 SLP189 T01060044
10133 20106 58001





000
SAUS43 KMQT 152304 COR
MTRP53
METAR KP53 152256Z AUTO 35007KT 14/09 A3010 RMK AO1 SLP195 T01390089





000
SAUS43 KMQT 152258
MTRP59
METAR KP59 152251Z AUTO 32008KT 280V350 12/05 A3008 RMK AO1 SLP190
T01220050





000
SAUS43 KMQT 152203 COR
MTRP53
METAR KP53 152156Z AUTO 35009KT 14/09 A3009 RMK AO1 SLP191 T01390089





000
SAUS43 KMQT 152158
MTRP59
METAR KP59 152151Z AUTO 34014G22KT 12/06 A3008 RMK AO1 SLP189
T01220061





000
SAUS43 KMQT 152103 COR
MTRP53
METAR KP53 152056Z AUTO 34008KT 15/08 A3008 RMK AO1 SLP189 T01500083
58003





000
SAUS43 KMQT 152058
MTRP59
METAR KP59 152051Z AUTO 34017G24KT 12/07 A3008 RMK AO1 SLP189
T01220067 55001





000
SAUS43 KMQT 152004 COR
MTRP53
METAR KP53 151956Z AUTO 35009KT 15/07 A3008 RMK AO1 SLP190 T01500072





000
SAUS43 KMQT 151958
MTRP59
METAR KP59 151951Z AUTO 35015KT 13/08 A3007 RMK AO1 SLP185 T01280078





000
SAUS43 KMQT 151904 COR
MTRP53
METAR KP53 151856Z AUTO 33010KT 14/08 A3009 RMK AO1 SLP192 T01440083





000
SAUS43 KMQT 151858
MTRP59
METAR KP59 151851Z AUTO 35015KT 13/08 A3008 RMK AO1 SLP189 T01280078





000
SAUS43 KMQT 151803 COR
MTRP53
METAR KP53 151756Z AUTO 33006KT 15/08 A3009 RMK AO1 SLP192 T01500083
10156 20050 55001





000
SAUS43 KMQT 151758
MTRP59
METAR KP59 151751Z AUTO 35013KT 12/08 A3009 RMK AO1 SLP189 T01220078
10122 20078





000
SAUS43 KMQT 151704 COR
MTRP53
METAR KP53 151656Z AUTO 33010KT 15/08 A3009 RMK AO1 SLP191 T01500083





000
SAUS43 KMQT 151659
MTRP59
METAR KP59 151651Z AUTO 35016KT 12/08 A3008 RMK AO1 SLP189 T01220078
$





000
SAUS43 KMQT 151604 COR
MTRP53
METAR KP53 151556Z AUTO 36007KT 14/09 A3009 RMK AO1 SLP193 T01440089





000
SAUS43 KMQT 151558
MTRP59
METAR KP59 151551Z AUTO 35012KT 12/07 A3008 RMK AO1 SLP189 T01220072
$





000
SAUS43 KMQT 151503 COR
MTRP53
METAR KP53 151456Z AUTO 05005KT 14/09 A3009 RMK AO1 SLP194 T01440089
51003





000
SAUS43 KMQT 151459
MTRP59
METAR KP59 151451Z AUTO 35009KT 12/07 A3008 RMK AO1 SLP188 T01170072
53005





000
SAUS43 KMQT 151404 COR
MTRP53
METAR KP53 151356Z AUTO 15003KT 12/08 A3009 RMK AO1 SLP193 T01220078





000
SAUS43 KMQT 151359
MTRP59
METAR KP59 151351Z AUTO 34008KT 12/06 A3008 RMK AO1 SLP186 T01170061





000
SAUS43 KMQT 151304 COR
MTRP53
METAR KP53 151256Z AUTO 18006KT 08/05 A3009 RMK AO1 SLP194 T00830050





000
SAUS43 KMQT 151257
MTRP59
METAR KP59 151251Z AUTO VRB03KT 10/06 A3007 RMK AO1 SLP185 T01000061





000
SAUS43 KMQT 151204 COR
MTRP53
METAR KP53 151156Z AUTO 17006KT 05/03 A3009 RMK AO1 SLP192 70001
T00500033 10094 20050 53007





000
SAUS43 KMQT 151157
MTRP59
METAR KP59 151151Z AUTO VRB05KT 08/06 A3007 RMK AO1 SLP185 70007
T00780056 10100 20072 52009





000
SAUS43 KMQT 151103 COR
MTRP53
METAR KP53 151056Z AUTO 18006KT 06/04 A3008 RMK AO1 SLP189 T00560039





000
SAUS43 KMQT 151057
MTRP59
METAR KP59 151051Z AUTO VRB04KT 08/06 A3006 RMK AO1 SLP181 T00780056





000
SAUS43 KMQT 151004 COR
MTRP53
METAR KP53 150956Z AUTO 00000KT 07/04 A3007 RMK AO1 SLP187 T00670039





000
SAUS43 KMQT 150958
MTRP59
METAR KP59 150951Z AUTO 27005KT 08/06 A3005 RMK AO1 SLP178 T00780056





000
SAUS43 KMQT 150903 COR
MTRP53
METAR KP53 150856Z AUTO 25006KT 08/05 A3007 RMK AO1 SLP185 T00830050
51006





000
SAUS43 KMQT 150858
MTRP59
METAR KP59 150851Z AUTO 29005KT 08/06 A3004 RMK AO1 SLP174 T00830061
50004





000
SAUS43 KMQT 150803 COR
MTRP53
METAR KP53 150756Z AUTO 23006KT 08/05 A3006 RMK AO1 SLP183 T00780050





000
SAUS43 KMQT 150758
MTRP59
METAR KP59 150751Z AUTO VRB04KT 09/06 A3005 RMK AO1 SLP175 T00940061





000
SAUS43 KMQT 150703 COR
MTRP53
METAR KP53 150656Z AUTO 23005KT 08/05 A3006 RMK AO1 SLP183 T00830050





000
SAUS43 KMQT 150658
MTRP59
METAR KP59 150651Z AUTO VRB05KT 10/06 A3004 RMK AO1 SLP173 T01000056





000
SAUS43 KMQT 150604 COR
MTRP53
METAR KP53 150556Z AUTO 22007KT 09/06 A3005 RMK AO1 SLP178 T00890056
10139 20089 55000





000
SAUS43 KMQT 150557
MTRP59
METAR KP59 150551Z AUTO 33007KT 290V360 10/06 A3003 RMK AO1 SLP170
T01000061 10128 20100 53011





000
SAUS43 KMQT 150504 COR
MTRP53
METAR KP53 150456Z AUTO 23005KT 10/07 A3005 RMK AO1 SLP177 T01000067
401720094





000
SAUS43 KMQT 150457
MTRP59
METAR KP59 150451Z AUTO 33009G18KT 11/06 A3001 RMK AO1 SLP166
T01060061 401560083





000
SAUS43 KMQT 150403 COR
MTRP53
METAR KP53 150356Z AUTO 22004KT 11/08 A3005 RMK AO1 SLP177 T01060083





000
SAUS43 KMQT 150357
MTRP59
METAR KP59 150351Z AUTO 32008G17KT 11/06 A3000 RMK AO1 SLP163
T01110061





000
SAUS43 KMQT 150303 COR
MTRP53
METAR KP53 150256Z AUTO 19004KT 11/09 A3005 RMK AO1 SLP178 T01110089
51014





000
SAUS43 KMQT 150257
MTRP59
METAR KP59 150251Z AUTO 32012G21KT 12/06 A3000 RMK AO1 SLP158
T01220056 51005





000
SAUS43 KMQT 150203 COR
MTRP53
METAR KP53 150156Z AUTO 00000KT 13/09 A3005 RMK AO1 SLP177 T01330089





000
SAUS43 KMQT 150157
MTRP59
METAR KP59 150151Z AUTO 31008G16KT 13/04 A2999 RMK AO1 SLP157
T01280044





000
SAUS43 KMQT 150104 COR
MTRP53
METAR KP53 150056Z AUTO 24004KT 13/09 A3003 RMK AO1 SLP170 T01330089





000
SAUS43 KMQT 150058
MTRP59
METAR KP59 150051Z AUTO 31011G18KT 13/04 A2999 RMK AO1 SLP155
T01280044





000
SAUS43 KMQT 150004 COR
MTRP53
METAR KP53 142356Z AUTO 20005KT 14/09 A3001 RMK AO1 SLP163 60001
T01390089 10172 20133 55008





000
SAUS43 KMQT 142358
MTRP59
METAR KP59 142351Z AUTO VRB05G17KT 12/04 A2998 RMK AO1 SLP154
T01220044 10156 20122 51002





000
SAUS43 KMQT 142304 COR
MTRP53
METAR KP53 142256Z AUTO 19006G14KT 14/09 A3000 RMK AO1 SLP162
T01440089





000
SAUS43 KMQT 142259
MTRP59
METAR KP59 142251Z AUTO 30007KT 260V330 13/05 A2998 RMK AO1 SLP153
T01330050





000
SAUS43 KMQT 142203 COR
MTRP53
METAR KP53 142156Z AUTO 19008KT 16/09 A3001 RMK AO1 SLP165 P0001
T01560089





000
SAUS43 KMQT 142158
MTRP59
METAR KP59 142151Z AUTO 32008KT 270V350 14/06 A2998 RMK AO1 SLP154
T01390056





000
SAUS43 KMQT 142103 COR
MTRP53
METAR KP53 142056Z AUTO 23004KT 14/07 A3003 RMK AO1 SLP171 T01390072
55010





000
SAUS43 KMQT 142058
MTRP59
METAR KP59 142051Z AUTO 31007G15KT 270V350 15/07 A2997 RMK AO1
SLP150 T01500067 56007





000
SAUS43 KMQT 142004 COR
MTRP53
METAR KP53 141956Z AUTO 21011G21KT 16/06 A3002 RMK AO1 SLP169
T01560056





000
SAUS43 KMQT 141958
MTRP59
METAR KP59 141951Z AUTO 32007G18KT 14/06 A2998 RMK AO1 SLP152
T01440061





000
SAUS43 KMQT 141903 COR
MTRP53
METAR KP53 141856Z AUTO 20015G23KT 16/05 A3004 RMK AO1 SLP173
T01610050





000
SAUS43 KMQT 141857
MTRP59
METAR KP59 141851Z AUTO VRB06G15KT 14/08 A2998 RMK AO1 SLP154
T01390083





000
SAUS43 KMQT 141804 COR
MTRP53
METAR KP53 141756Z AUTO 20009G21KT 16/04 A3006 RMK AO1 SLP181
T01610039 10172 20094 58023





000
SAUS43 KMQT 141757
MTRP59
METAR KP59 141751Z AUTO 26009G15KT 12/08 A3000 RMK AO1 SLP159 60007
T01220083 10122 20100 58007





000
SAUS43 KMQT 141704 COR
MTRP53
METAR KP53 141656Z AUTO 19009G21KT 16/04 A3009 RMK AO1 SLP193
T01560044





000
SAUS43 KMQT 141657
MTRP59
METAR KP59 141651Z AUTO 25007KT 220V280 10/08 A3001 RMK AO1 SLP165
P0006 T01000078





000
SAUS43 KMQT 141604 COR
MTRP53
METAR KP53 141556Z AUTO 21008G24KT 15/04 A3012 RMK AO1 SLP200
T01500044





000
SAUS43 KMQT 141558
MTRP59
METAR KP59 141551Z AUTO VRB05KT 10/07 A3002 RMK AO1 SLP169 P0001
T01000072





000
SAUS43 KMQT 141504 COR
MTRP53
METAR KP53 141456Z AUTO 22010G19KT 190V260 14/04 A3013 RMK AO1
SLP205 T01390044 58021





000
SAUS43 KMQT 141458
MTRP59
METAR KP59 141451Z AUTO 26010G17KT 230V300 12/06 A3002 RMK AO1
SLP166 T01220056 56025





000
SAUS43 KMQT 141404 COR
MTRP53
METAR KP53 141356Z AUTO 20008G16KT 11/04 A3016 RMK AO1 SLP216
T01110044





000
SAUS43 KMQT 141358
MTRP59
METAR KP59 141351Z AUTO 23009G16KT 12/06 A3003 RMK AO1 SLP172
T01170056





000
SAUS43 KMQT 141304 COR
MTRP53
METAR KP53 141256Z AUTO 20005KT 10/05 A3018 RMK AO1 SLP225 T01000050





000
SAUS43 KMQT 141258
MTRP59
METAR KP59 141251Z AUTO 23007KT 10/05 A3006 RMK AO1 SLP184 T01000050





000
SAUS43 KMQT 141203 COR
MTRP53
METAR KP53 141156Z AUTO 21006KT 09/06 A3019 RMK AO1 SLP228 T00940056
10100 20094 56007





000
SAUS43 KMQT 141157
MTRP59
METAR KP59 141151Z AUTO VRB06KT 10/04 A3009 RMK AO1 SLP193 T01000044
10111 20083 58018





000
SAUS43 KMQT 141104 COR
MTRP53
METAR KP53 141056Z AUTO 20006KT 09/06 A3020 RMK AO1 SLP229 T00940056





000
SAUS43 KMQT 141058
MTRP59
METAR KP59 141051Z AUTO 23006KT 09/05 A3011 RMK AO1 SLP198 T00890050





000
SAUS43 KMQT 141003 COR
MTRP53
METAR KP53 140956Z AUTO 21006KT 09/06 A3020 RMK AO1 SLP232 T00940056





000
SAUS43 KMQT 140959
MTRP59
METAR KP59 140951Z AUTO 24006KT 09/04 A3013 RMK AO1 SLP206 T00890044





000
SAUS43 KMQT 140904 COR
MTRP53
METAR KP53 140856Z AUTO 20005KT 10/06 A3022 RMK AO1 SLP235 T01000056
58012





000
SAUS43 KMQT 140857
MTRP59
METAR KP59 140851Z AUTO 24005KT 09/04 A3014 RMK AO1 SLP210 T00890039
58012





000
SAUS43 KMQT 140804 COR
MTRP53
METAR KP53 140756Z AUTO 19005KT 10/06 A3023 RMK AO1 SLP238 T01000056





000
SAUS43 KMQT 140758
MTRP59
METAR KP59 140751Z AUTO VRB04KT 09/04 A3016 RMK AO1 SLP214 T00940039





    US Dept of Commerce
    National Oceanic and Atmospheric Administration
    National Weather Service
    1325 East West Highway
    Silver Spring, MD 20910
    Page Author: NWS Internet Services Team
Disclaimer
Information Quality
Credits
Glossary
Privacy Policy
Freedom of Information Act (FOIA)
About Us
Career Opportunities